Cape Express — HO5337 — position and weather

sailwx.info

Track history (hours):
 
Tides and Currents Weather Stations Pressure Air Temp Water Temp Dewpoint Dewpoint Depression Visibility Wind Speed Wind Dir Waves Ship Positions

Cape Express

Last reported at 2017-Jun-28 18:06 UTC. Time now 2017-Jun-29 02:11 UTC.
Position N 26°22' W 079°45'.

Length 29 m; draft 2.1 m.

Type: Cargo ship. MMSI: 370269000.

Date/timePositionNaut miles runAvg speedWind from/ knotsBaromVisibWave heightAir tempDewpointWater temp
2017-Jun-28 18:06N 26°22' W 079°45'111.4
2017-Jun-28 18:00N 26°21' W 079°46'611.5
2017-Jun-28 17:30N 26°17' W 079°51'611.2
2017-Jun-28 17:00N 26°13' W 079°55'510.8
2017-Jun-28 16:30N 26°10' W 079°60'510.1
2017-Jun-28 16:00N 26°06' W 080°04'4 7.3
2017-Jun-28 15:30N 26°04' W 080°07'1 1.7
2017-Jun-28 15:00N 26°04' W 080°08'0 0.0
2017-Jun-28 14:00N 26°04' W 080°08'0 0.0
2017-Jun-28 13:30N 26°04' W 080°08'0 0.0
2017-Jun-28 13:00N 26°04' W 080°08'0 0.0
2017-Jun-28 12:30N 26°04' W 080°08'0 0.0
2017-Jun-28 12:00N 26°04' W 080°08'0 0.0
2017-Jun-28 11:31N 26°04' W 080°08'0 0.0
2017-Jun-28 11:01N 26°04' W 080°08'0 0.0
2017-Jun-28 10:31N 26°04' W 080°08'0 0.0
2017-Jun-28 10:00N 26°04' W 080°08'0 0.0
2017-Jun-28 09:31N 26°04' W 080°08'0 0.0
2017-Jun-28 09:00N 26°04' W 080°08'0 0.0
2017-Jun-28 08:30N 26°04' W 080°08'0 0.0
2017-Jun-28 08:00N 26°04' W 080°08'0 0.0
2017-Jun-28 07:31N 26°04' W 080°08'0 0.0
2017-Jun-28 07:01N 26°04' W 080°08'0 0.0
2017-Jun-28 06:31N 26°04' W 080°08'0 0.0
2017-Jun-28 06:01N 26°04' W 080°08'0 0.0
2017-Jun-28 05:31N 26°04' W 080°08'0 0.0
2017-Jun-28 05:00N 26°04' W 080°08'0 0.0
2017-Jun-28 04:30N 26°04' W 080°08'0 0.0
2017-Jun-28 04:00N 26°04' W 080°08'0 0.0
2017-Jun-28 03:30N 26°04' W 080°08'0 0.0
2017-Jun-28 03:01N 26°04' W 080°08'0 0.0
2017-Jun-28 02:31N 26°04' W 080°08'0 0.0
2017-Jun-28 02:00N 26°04' W 080°08'0 0.0
2017-Jun-28 01:30N 26°04' W 080°08'0 0.0
2017-Jun-28 01:00N 26°04' W 080°08'0 0.2
2017-Jun-28 00:30N 26°04' W 080°08'3 5.6
2017-Jun-28 00:01N 26°06' W 080°06'5 9.5
2017-Jun-27 23:30N 26°04' W 080°00'510.2
2017-Jun-27 22:59N 26°03' W 079°55'510.5
2017-Jun-27 22:30N 26°01' W 079°49'  
2017-Jun-25 07:47N 25°51' W 079°36'2 8.1
2017-Jun-25 07:30N 25°52' W 079°38'4 7.8
2017-Jun-25 07:00N 25°54' W 079°42'4 7.4
2017-Jun-25 06:30N 25°56' W 079°45'4 7.4
2017-Jun-25 06:00N 25°58' W 079°49'4 7.2
2017-Jun-25 05:30N 25°59' W 079°52'4 7.5
2017-Jun-25 05:00N 26°01' W 079°56'4 7.4
2017-Jun-25 04:30N 26°03' W 079°60'4 7.8
2017-Jun-25 04:00N 26°05' W 080°04'3 6.1
2017-Jun-25 03:30N 26°04' W 080°07'1 2.0
2017-Jun-25 03:00N 26°04' W 080°08'0 0.0
2017-Jun-25 02:30N 26°04' W 080°08'0 0.0
2017-Jun-25 02:01N 26°04' W 080°08'0 0.0
2017-Jun-25 01:30N 26°04' W 080°08'0 0.0
2017-Jun-25 01:00N 26°04' W 080°08'0 0.0
2017-Jun-25 00:30N 26°04' W 080°08'0 0.0
2017-Jun-25 00:00N 26°04' W 080°08'0 0.6
2017-Jun-24 23:30N 26°04' W 080°07'3 6.4
2017-Jun-24 23:00N 26°05' W 080°05'510.5
2017-Jun-24 22:30N 26°04' W 079°59'510.7
2017-Jun-24 22:00N 26°02' W 079°53'510.7
2017-Jun-24 21:30N 26°01' W 079°48'10 0.2
2017-Jun-23 02:07N 25°58' W 079°37'1 8.1
2017-Jun-23 02:00N 25°58' W 079°38'4 8.1
2017-Jun-23 01:30N 25°60' W 079°42'4 8.0
2017-Jun-23 01:00N 26°01' W 079°47'4 8.0
2017-Jun-23 00:30N 26°02' W 079°51'4 8.1
2017-Jun-23 00:00N 26°03' W 079°55'4 8.2
2017-Jun-22 23:30N 26°04' W 079°60'4 8.7
2017-Jun-22 23:00N 26°05' W 080°04'3 6.3
2017-Jun-22 22:30N 26°04' W 080°07'1 1.3
2017-Jun-22 22:01N 26°04' W 080°08'0 0.0
2017-Jun-22 21:30N 26°04' W 080°08'0 0.0
2017-Jun-22 21:00N 26°04' W 080°08'0 0.0
2017-Jun-22 20:31N 26°04' W 080°08'0 0.0
2017-Jun-22 20:00N 26°04' W 080°08'0 0.0
2017-Jun-22 19:30N 26°04' W 080°08'0 0.0
2017-Jun-22 19:01N 26°04' W 080°08'0 0.0
2017-Jun-22 18:30N 26°04' W 080°08'1 2.1
2017-Jun-22 18:00N 26°04' W 080°07'3 6.6
2017-Jun-22 17:30N 26°05' W 080°03'510.0
2017-Jun-22 17:00N 26°04' W 079°58'5 9.7
2017-Jun-22 16:30N 26°02' W 079°53'510.3
2017-Jun-22 16:00N 26°00' W 079°47'20 0.5
2017-Jun-20 21:33N 26°05' W 079°26'1 8.5
2017-Jun-20 21:28N 26°05' W 079°27'4 8.6
2017-Jun-20 20:59N 26°05' W 079°31'4 8.8
2017-Jun-20 20:30N 26°05' W 079°36'4 8.4
2017-Jun-20 20:00N 26°05' W 079°41'4 8.2
2017-Jun-20 19:30N 26°05' W 079°45'4 7.7
2017-Jun-20 19:00N 26°05' W 079°50'4 7.5
2017-Jun-20 18:30N 26°06' W 079°54'4 8.6
2017-Jun-20 18:00N 26°05' W 079°59'4 8.4
2017-Jun-20 17:30N 26°05' W 080°03'3 6.6
2017-Jun-20 17:00N 26°05' W 080°07'1 2.8
2017-Jun-20 16:30N 26°04' W 080°08'0 0.0
2017-Jun-20 16:00N 26°04' W 080°08'0 0.0
2017-Jun-20 15:30N 26°04' W 080°08'0 0.0
2017-Jun-20 15:00N 26°04' W 080°08'0 0.0
2017-Jun-20 14:00N 26°04' W 080°08'0 0.0
2017-Jun-20 13:30N 26°04' W 080°08'0 0.0
2017-Jun-20 13:00N 26°04' W 080°08'0 0.0
2017-Jun-20 12:30N 26°04' W 080°08'0 0.0
2017-Jun-20 12:00N 26°04' W 080°08'0 0.0
2017-Jun-20 11:30N 26°04' W 080°08'0 0.0
2017-Jun-20 11:00N 26°04' W 080°08'0 0.0
2017-Jun-20 10:30N 26°04' W 080°08'0 0.0
2017-Jun-20 10:00N 26°04' W 080°08'0 0.0
2017-Jun-20 09:30N 26°04' W 080°08'0 0.0
2017-Jun-20 09:00N 26°04' W 080°08'0 0.0
2017-Jun-20 08:30N 26°04' W 080°08'0 0.0
2017-Jun-20 08:00N 26°04' W 080°08'0 0.0
2017-Jun-20 07:30N 26°04' W 080°08'0 0.0
2017-Jun-20 07:00N 26°04' W 080°08'0 0.0
2017-Jun-20 06:30N 26°04' W 080°08'0 0.0
2017-Jun-20 06:00N 26°04' W 080°08'0 0.0
2017-Jun-20 05:30N 26°04' W 080°08'0 0.0
2017-Jun-20 05:00N 26°04' W 080°08'0 0.0
2017-Jun-20 04:30N 26°04' W 080°08'0 0.0
2017-Jun-20 04:00N 26°04' W 080°08'0 0.0
2017-Jun-20 03:30N 26°04' W 080°08'0 0.0
2017-Jun-20 03:00N 26°04' W 080°08'0 0.0
2017-Jun-20 02:30N 26°04' W 080°08'0 0.0
2017-Jun-20 02:00N 26°04' W 080°08'0 0.0
2017-Jun-20 01:30N 26°04' W 080°08'0 0.0
2017-Jun-20 01:00N 26°04' W 080°08'0 0.0
2017-Jun-20 00:30N 26°04' W 080°08'0 0.0
2017-Jun-20 00:00N 26°04' W 080°08'0 0.0
2017-Jun-19 23:30N 26°04' W 080°08'0 0.0
2017-Jun-19 23:00N 26°04' W 080°08'0 0.0
2017-Jun-19 22:30N 26°04' W 080°08'0 0.0
2017-Jun-19 22:00N 26°04' W 080°08'0 0.0
2017-Jun-19 21:30N 26°04' W 080°08'0 0.0
2017-Jun-19 21:00N 26°04' W 080°08'0 0.0
2017-Jun-19 20:30N 26°04' W 080°08'0 0.0
2017-Jun-19 20:00N 26°04' W 080°08'0 0.0
2017-Jun-19 19:30N 26°04' W 080°08'0 0.0
2017-Jun-19 19:00N 26°04' W 080°08'0 0.0
2017-Jun-19 18:30N 26°04' W 080°08'0 0.0
2017-Jun-19 18:00N 26°04' W 080°08'0 0.0
2017-Jun-19 17:30N 26°04' W 080°08'0 0.0
2017-Jun-19 17:00N 26°04' W 080°08'0 0.0
2017-Jun-19 16:30N 26°04' W 080°08'0 0.0
2017-Jun-19 16:00N 26°04' W 080°08'0 0.0
2017-Jun-19 15:30N 26°04' W 080°08'0 0.0
2017-Jun-19 15:00N 26°04' W 080°08'0 0.0
2017-Jun-19 14:30N 26°04' W 080°08'0 0.0
2017-Jun-19 13:30N 26°04' W 080°08'0 0.4
2017-Jun-19 13:00N 26°04' W 080°08'2 5.0
2017-Jun-19 12:30N 26°06' W 080°06'510.5
2017-Jun-19 12:00N 26°04' W 080°00'510.4
2017-Jun-19 11:30N 26°03' W 079°55'510.6
2017-Jun-19 11:00N 26°01' W 079°49'510.7
2017-Jun-19 10:30N 25°59' W 079°44'  
Track history (hours):
 
Tides and Currents Weather Stations Pressure Air Temp Water Temp Dewpoint Dewpoint Depression Visibility Wind Speed Wind Dir Waves Ship Positions

Cape Express

Last reported at 2017-Jun-28 18:06 UTC. Time now 2017-Jun-29 02:11 UTC.
Position N 26°22' W 079°45'.

Length 29 m; draft 2.1 m.

Type: Cargo ship. MMSI: 370269000.

Date/timePositionNaut miles runAvg speedWind from/ knotsBaromVisibWave heightAir tempDewpointWater temp
2017-Jun-28 18:06N 26°22' W 079°45'111.4
2017-Jun-28 18:00N 26°21' W 079°46'611.5
2017-Jun-28 17:30N 26°17' W 079°51'611.2
2017-Jun-28 17:00N 26°13' W 079°55'510.8
2017-Jun-28 16:30N 26°10' W 079°60'510.1
2017-Jun-28 16:00N 26°06' W 080°04'4 7.3
2017-Jun-28 15:30N 26°04' W 080°07'1 1.7
2017-Jun-28 15:00N 26°04' W 080°08'0 0.0
2017-Jun-28 14:00N 26°04' W 080°08'0 0.0
2017-Jun-28 13:30N 26°04' W 080°08'0 0.0
2017-Jun-28 13:00N 26°04' W 080°08'0 0.0
2017-Jun-28 12:30N 26°04' W 080°08'0 0.0
2017-Jun-28 12:00N 26°04' W 080°08'0 0.0
2017-Jun-28 11:31N 26°04' W 080°08'0 0.0
2017-Jun-28 11:01N 26°04' W 080°08'0 0.0
2017-Jun-28 10:31N 26°04' W 080°08'0 0.0
2017-Jun-28 10:00N 26°04' W 080°08'0 0.0
2017-Jun-28 09:31N 26°04' W 080°08'0 0.0
2017-Jun-28 09:00N 26°04' W 080°08'0 0.0
2017-Jun-28 08:30N 26°04' W 080°08'0 0.0
2017-Jun-28 08:00N 26°04' W 080°08'0 0.0
2017-Jun-28 07:31N 26°04' W 080°08'0 0.0
2017-Jun-28 07:01N 26°04' W 080°08'0 0.0
2017-Jun-28 06:31N 26°04' W 080°08'0 0.0
2017-Jun-28 06:01N 26°04' W 080°08'0 0.0
2017-Jun-28 05:31N 26°04' W 080°08'0 0.0
2017-Jun-28 05:00N 26°04' W 080°08'0 0.0
2017-Jun-28 04:30N 26°04' W 080°08'0 0.0
2017-Jun-28 04:00N 26°04' W 080°08'0 0.0
2017-Jun-28 03:30N 26°04' W 080°08'0 0.0
2017-Jun-28 03:01N 26°04' W 080°08'0 0.0
2017-Jun-28 02:31N 26°04' W 080°08'0 0.0
2017-Jun-28 02:00N 26°04' W 080°08'0 0.0
2017-Jun-28 01:30N 26°04' W 080°08'0 0.0
2017-Jun-28 01:00N 26°04' W 080°08'0 0.2
2017-Jun-28 00:30N 26°04' W 080°08'3 5.6
2017-Jun-28 00:01N 26°06' W 080°06'5 9.5
2017-Jun-27 23:30N 26°04' W 080°00'510.2
2017-Jun-27 22:59N 26°03' W 079°55'510.5
2017-Jun-27 22:30N 26°01' W 079°49'  
2017-Jun-25 07:47N 25°51' W 079°36'2 8.1
2017-Jun-25 07:30N 25°52' W 079°38'4 7.8
2017-Jun-25 07:00N 25°54' W 079°42'4 7.4
2017-Jun-25 06:30N 25°56' W 079°45'4 7.4
2017-Jun-25 06:00N 25°58' W 079°49'4 7.2
2017-Jun-25 05:30N 25°59' W 079°52'4 7.5
2017-Jun-25 05:00N 26°01' W 079°56'4 7.4
2017-Jun-25 04:30N 26°03' W 079°60'4 7.8
2017-Jun-25 04:00N 26°05' W 080°04'3 6.1
2017-Jun-25 03:30N 26°04' W 080°07'1 2.0
2017-Jun-25 03:00N 26°04' W 080°08'0 0.0
2017-Jun-25 02:30N 26°04' W 080°08'0 0.0
2017-Jun-25 02:01N 26°04' W 080°08'0 0.0
2017-Jun-25 01:30N 26°04' W 080°08'0 0.0
2017-Jun-25 01:00N 26°04' W 080°08'0 0.0
2017-Jun-25 00:30N 26°04' W 080°08'0 0.0
2017-Jun-25 00:00N 26°04' W 080°08'0 0.6
2017-Jun-24 23:30N 26°04' W 080°07'3 6.4
2017-Jun-24 23:00N 26°05' W 080°05'510.5
2017-Jun-24 22:30N 26°04' W 079°59'510.7
2017-Jun-24 22:00N 26°02' W 079°53'510.7
2017-Jun-24 21:30N 26°01' W 079°48'10 0.2
2017-Jun-23 02:07N 25°58' W 079°37'1 8.1
2017-Jun-23 02:00N 25°58' W 079°38'4 8.1
2017-Jun-23 01:30N 25°60' W 079°42'4 8.0
2017-Jun-23 01:00N 26°01' W 079°47'4 8.0
2017-Jun-23 00:30N 26°02' W 079°51'4 8.1
2017-Jun-23 00:00N 26°03' W 079°55'4 8.2
2017-Jun-22 23:30N 26°04' W 079°60'4 8.7
2017-Jun-22 23:00N 26°05' W 080°04'3 6.3
2017-Jun-22 22:30N 26°04' W 080°07'1 1.3
2017-Jun-22 22:01N 26°04' W 080°08'0 0.0
2017-Jun-22 21:30N 26°04' W 080°08'0 0.0
2017-Jun-22 21:00N 26°04' W 080°08'0 0.0
2017-Jun-22 20:31N 26°04' W 080°08'0 0.0
2017-Jun-22 20:00N 26°04' W 080°08'0 0.0
2017-Jun-22 19:30N 26°04' W 080°08'0 0.0
2017-Jun-22 19:01N 26°04' W 080°08'0 0.0
2017-Jun-22 18:30N 26°04' W 080°08'1 2.1
2017-Jun-22 18:00N 26°04' W 080°07'3 6.6
2017-Jun-22 17:30N 26°05' W 080°03'510.0
2017-Jun-22 17:00N 26°04' W 079°58'5 9.7
2017-Jun-22 16:30N 26°02' W 079°53'510.3
2017-Jun-22 16:00N 26°00' W 079°47'20 0.5
2017-Jun-20 21:33N 26°05' W 079°26'1 8.5
2017-Jun-20 21:28N 26°05' W 079°27'4 8.6
2017-Jun-20 20:59N 26°05' W 079°31'4 8.8
2017-Jun-20 20:30N 26°05' W 079°36'4 8.4
2017-Jun-20 20:00N 26°05' W 079°41'4 8.2
2017-Jun-20 19:30N 26°05' W 079°45'4 7.7
2017-Jun-20 19:00N 26°05' W 079°50'4 7.5
2017-Jun-20 18:30N 26°06' W 079°54'4 8.6
2017-Jun-20 18:00N 26°05' W 079°59'4 8.4
2017-Jun-20 17:30N 26°05' W 080°03'3 6.6
2017-Jun-20 17:00N 26°05' W 080°07'1 2.8
2017-Jun-20 16:30N 26°04' W 080°08'0 0.0
2017-Jun-20 16:00N 26°04' W 080°08'0 0.0
2017-Jun-20 15:30N 26°04' W 080°08'0 0.0
2017-Jun-20 15:00N 26°04' W 080°08'0 0.0
2017-Jun-20 14:00N 26°04' W 080°08'0 0.0
2017-Jun-20 13:30N 26°04' W 080°08'0 0.0
2017-Jun-20 13:00N 26°04' W 080°08'0 0.0
2017-Jun-20 12:30N 26°04' W 080°08'0 0.0
2017-Jun-20 12:00N 26°04' W 080°08'0 0.0
2017-Jun-20 11:30N 26°04' W 080°08'0 0.0
2017-Jun-20 11:00N 26°04' W 080°08'0 0.0
2017-Jun-20 10:30N 26°04' W 080°08'0 0.0
2017-Jun-20 10:00N 26°04' W 080°08'0 0.0
2017-Jun-20 09:30N 26°04' W 080°08'0 0.0
2017-Jun-20 09:00N 26°04' W 080°08'0 0.0
2017-Jun-20 08:30N 26°04' W 080°08'0 0.0
2017-Jun-20 08:00N 26°04' W 080°08'0 0.0
2017-Jun-20 07:30N 26°04' W 080°08'0 0.0
2017-Jun-20 07:00N 26°04' W 080°08'0 0.0
2017-Jun-20 06:30N 26°04' W 080°08'0 0.0
2017-Jun-20 06:00N 26°04' W 080°08'0 0.0
2017-Jun-20 05:30N 26°04' W 080°08'0 0.0
2017-Jun-20 05:00N 26°04' W 080°08'0 0.0
2017-Jun-20 04:30N 26°04' W 080°08'0 0.0
2017-Jun-20 04:00N 26°04' W 080°08'0 0.0
2017-Jun-20 03:30N 26°04' W 080°08'0 0.0
2017-Jun-20 03:00N 26°04' W 080°08'0 0.0
2017-Jun-20 02:30N 26°04' W 080°08'0 0.0
2017-Jun-20 02:00N 26°04' W 080°08'0 0.0
2017-Jun-20 01:30N 26°04' W 080°08'0 0.0
2017-Jun-20 01:00N 26°04' W 080°08'0 0.0
2017-Jun-20 00:30N 26°04' W 080°08'0 0.0
2017-Jun-20 00:00N 26°04' W 080°08'0 0.0
2017-Jun-19 23:30N 26°04' W 080°08'0 0.0
2017-Jun-19 23:00N 26°04' W 080°08'0 0.0
2017-Jun-19 22:30N 26°04' W 080°08'0 0.0
2017-Jun-19 22:00N 26°04' W 080°08'0 0.0
2017-Jun-19 21:30N 26°04' W 080°08'0 0.0
2017-Jun-19 21:00N 26°04' W 080°08'0 0.0
2017-Jun-19 20:30N 26°04' W 080°08'0 0.0
2017-Jun-19 20:00N 26°04' W 080°08'0 0.0
2017-Jun-19 19:30N 26°04' W 080°08'0 0.0
2017-Jun-19 19:00N 26°04' W 080°08'0 0.0
2017-Jun-19 18:30N 26°04' W 080°08'0 0.0
2017-Jun-19 18:00N 26°04' W 080°08'0 0.0
2017-Jun-19 17:30N 26°04' W 080°08'0 0.0
2017-Jun-19 17:00N 26°04' W 080°08'0 0.0
2017-Jun-19 16:30N 26°04' W 080°08'0 0.0
2017-Jun-19 16:00N 26°04' W 080°08'0 0.0
2017-Jun-19 15:30N 26°04' W 080°08'0 0.0
2017-Jun-19 15:00N 26°04' W 080°08'0 0.0
2017-Jun-19 14:30N 26°04' W 080°08'0 0.0
2017-Jun-19 13:30N 26°04' W 080°08'0 0.4
2017-Jun-19 13:00N 26°04' W 080°08'2 5.0
2017-Jun-19 12:30N 26°06' W 080°06'510.5
2017-Jun-19 12:00N 26°04' W 080°00'510.4
2017-Jun-19 11:30N 26°03' W 079°55'510.6
2017-Jun-19 11:00N 26°01' W 079°49'510.7
2017-Jun-19 10:30N 25°59' W 079°44'  

Dump ship's entire track history